Clipper Mars — LAHZ6 — position and weather

sailwx.info

Track history (hours):
 
Tides and Currents Weather Stations Pressure Air Temp Water Temp Dewpoint Dewpoint Depression Visibility Wind Speed Wind Dir Waves Ship Positions

Clipper Mars

Last reported at 2018-Jul-16 05:03 UTC. Time now 2018-Jul-17 05:36 UTC.
Position N 37°26' E 025°56'.

Length 205 m; draft 12.3 m.

Type: Tanker. MMSI: 258667000.

Date/timePositionNaut miles runAvg speedWind from/ knotsBaromVisibWave heightAir tempDewpointWater temp
2018-Jul-16 05:03N 37°26' E 025°56'114.1
2018-Jul-16 05:00N 37°26' E 025°55'714.0
2018-Jul-16 04:30N 37°32' E 025°49'714.3
2018-Jul-16 04:00N 37°38' E 025°45'714.2
2018-Jul-16 03:30N 37°45' E 025°42'714.6
2018-Jul-16 03:00N 37°51' E 025°38'11814.0
2018-Jul-15 18:31N 39°50' E 025°41'114.3
2018-Jul-15 18:27N 39°50' E 025°42'715.0
2018-Jul-15 18:00N 39°55' E 025°49'  
2018-Jul-12 21:21N 42°22' E 029°35'514.5
2018-Jul-12 21:00N 42°27' E 029°38'714.4
2018-Jul-12 20:30N 42°34' E 029°41'714.4
2018-Jul-12 20:00N 42°41' E 029°45'3614.5
2018-Jul-12 17:33N 43°14' E 030°03'214.6
2018-Jul-12 17:27N 43°15' E 030°04'814.7
2018-Jul-12 16:55N 43°22' E 030°08'14114.3
2018-Jul-12 07:02N 45°38' E 031°05'3613.5
2018-Jul-12 04:23N 46°13' E 030°57'512.1
2018-Jul-12 04:00N 46°17' E 030°55'714.1
2018-Jul-12 03:30N 46°24' E 030°55'713.3
2018-Jul-12 03:00N 46°31' E 030°55'3 6.8
2018-Jul-12 02:30N 46°33' E 030°59'3 6.4
2018-Jul-12 02:00N 46°36' E 031°01'1 0.0
2018-Jul-10 16:17N 46°37' E 031°01'0 1.7
2018-Jul-10 16:00N 46°37' E 031°01'5 9.3
2018-Jul-10 15:30N 46°32' E 030°59'1 1.3
2018-Jul-10 14:46N 46°32' E 030°59'0 0.0
2018-Jul-10 14:28N 46°32' E 030°59'0 0.0
2018-Jul-10 13:50N 46°32' E 030°59'0 0.0
2018-Jul-10 13:23N 46°32' E 030°59'0 0.0
2018-Jul-10 12:59N 46°32' E 030°59'0 0.1
2018-Jul-10 12:27N 46°32' E 030°59'0 0.0
2018-Jul-10 12:00N 46°32' E 030°59'0 0.1
2018-Jul-10 11:24N 46°32' E 030°59'0 0.0
2018-Jul-10 10:58N 46°32' E 030°59'0 0.0
2018-Jul-10 10:25N 46°32' E 030°59'0 0.0
2018-Jul-10 09:55N 46°32' E 030°59'0 0.0
2018-Jul-10 09:23N 46°32' E 030°59'0 0.1
2018-Jul-10 08:56N 46°32' E 030°59'0 0.1
2018-Jul-10 08:26N 46°32' E 030°59'0 0.1
2018-Jul-10 07:57N 46°32' E 030°59'0 0.0
2018-Jul-10 07:30N 46°32' E 030°59'0 0.0
2018-Jul-10 07:00N 46°32' E 030°59'0 0.1
2018-Jul-10 06:19N 46°32' E 030°59'0 0.1
2018-Jul-10 05:58N 46°32' E 030°59'0 0.0
2018-Jul-10 05:25N 46°31' E 030°59'0 0.0
2018-Jul-10 04:56N 46°31' E 030°59'0 0.1
2018-Jul-10 04:26N 46°31' E 030°59'0 0.0
2018-Jul-10 03:59N 46°31' E 030°59'0 0.0
2018-Jul-10 03:27N 46°31' E 030°59'0 0.0
2018-Jul-10 02:57N 46°31' E 030°59'0 0.0
2018-Jul-10 02:24N 46°31' E 030°59'0 0.0
2018-Jul-10 01:52N 46°31' E 030°59'0 0.0
2018-Jul-10 01:19N 46°31' E 030°59'0 0.0
2018-Jul-10 00:58N 46°31' E 030°59'0 0.1
2018-Jul-10 00:29N 46°31' E 030°59'0 0.0
2018-Jul-09 23:56N 46°31' E 030°59'0 0.0
2018-Jul-09 23:17N 46°31' E 030°59'0 0.0
2018-Jul-09 22:57N 46°31' E 030°59'0 0.0
2018-Jul-09 22:30N 46°31' E 030°59'0 0.0
2018-Jul-09 21:54N 46°31' E 030°59'0 0.1
2018-Jul-09 21:28N 46°31' E 030°59'0 0.1
2018-Jul-09 20:55N 46°31' E 030°59'0 0.1
2018-Jul-09 20:28N 46°32' E 030°59'0 0.1
2018-Jul-09 19:59N 46°32' E 030°59'0 0.1
2018-Jul-09 19:17N 46°32' E 030°59'0 0.1
2018-Jul-09 18:59N 46°32' E 030°59'0 0.1
2018-Jul-09 18:30N 46°32' E 030°59'0 0.2
2018-Jul-09 17:54N 46°31' E 030°59'0 0.1
2018-Jul-09 17:24N 46°31' E 030°59'0 0.1
2018-Jul-09 16:55N 46°31' E 030°59'0 0.3
2018-Jul-09 16:19N 46°31' E 030°59'0 0.1
2018-Jul-09 15:58N 46°32' E 030°59'0 0.1
2018-Jul-09 15:20N 46°32' E 030°59'0 0.1
2018-Jul-09 14:59N 46°32' E 030°59'0 0.0
2018-Jul-09 14:23N 46°32' E 030°59'0 0.0
2018-Jul-09 13:57N 46°32' E 030°59'0 0.0
2018-Jul-09 13:18N 46°32' E 030°59'0 0.0
2018-Jul-09 12:57N 46°32' E 030°59'0 0.1
2018-Jul-09 12:22N 46°32' E 030°59'0 0.0
2018-Jul-09 11:58N 46°32' E 030°59'0 0.1
2018-Jul-09 11:28N 46°32' E 030°59'0 0.1
2018-Jul-09 10:50N 46°32' E 030°59'0 0.1
2018-Jul-09 10:23N 46°32' E 030°59'0 0.1
2018-Jul-09 09:59N 46°32' E 030°59'0 0.0
2018-Jul-09 09:29N 46°32' E 030°59'0 0.0
2018-Jul-09 09:00N 46°32' E 030°59'0 0.1
2018-Jul-09 08:24N 46°32' E 030°59'0 0.1
2018-Jul-09 07:57N 46°31' E 030°59'0 0.0
2018-Jul-09 07:28N 46°32' E 030°59'0 0.0
2018-Jul-09 06:55N 46°32' E 030°59'0 0.0
2018-Jul-09 06:23N 46°32' E 030°59'0 0.1
2018-Jul-09 05:56N 46°31' E 030°59'0 0.0
2018-Jul-09 05:26N 46°31' E 030°59'0 0.1
2018-Jul-09 04:51N 46°31' E 030°59'0 0.1
2018-Jul-09 04:27N 46°31' E 030°59'0 0.0
2018-Jul-09 04:00N 46°31' E 030°59'0 0.0
2018-Jul-09 03:27N 46°31' E 030°59'0 0.0
2018-Jul-09 02:58N 46°31' E 030°59'0 0.0
2018-Jul-09 02:25N 46°31' E 030°59'0 0.0
2018-Jul-09 01:55N 46°31' E 030°59'0 0.0
2018-Jul-09 01:29N 46°31' E 030°59'0 0.0
2018-Jul-09 00:41N 46°31' E 030°59'0 0.1
2018-Jul-09 00:29N 46°31' E 030°59'0 0.0
2018-Jul-08 23:57N 46°31' E 030°59'0 0.0
2018-Jul-08 23:24N 46°31' E 030°59'0 0.0
2018-Jul-08 22:49N 46°31' E 030°59'0 0.0
2018-Jul-08 17:10N 46°32' E 030°59'0 0.0
2018-Jul-08 16:11N 46°32' E 030°59'0 0.0
2018-Jul-08 12:58N 46°32' E 030°59'0 0.0
2018-Jul-08 12:14N 46°32' E 030°59'0 0.1
2018-Jul-08 11:50N 46°32' E 030°59'0 0.0
2018-Jul-08 11:26N 46°32' E 030°59'0 0.0
2018-Jul-08 10:45N 46°32' E 030°59'0 0.0
2018-Jul-08 09:42N 46°32' E 030°59'0 0.1
2018-Jul-08 07:58N 46°31' E 030°59'0 0.0
2018-Jul-08 07:29N 46°31' E 030°59'0 0.0
2018-Jul-08 02:50N 46°31' E 030°59'0 0.0
2018-Jul-08 01:36N 46°31' E 030°59'0 0.0
2018-Jul-08 00:30N 46°31' E 030°59'0 0.0
2018-Jul-07 23:52N 46°31' E 030°59'0 0.1
2018-Jul-07 23:16N 46°31' E 030°59'0 0.1
2018-Jul-07 22:50N 46°31' E 030°59'0 0.0
2018-Jul-07 21:32N 46°31' E 030°59'0 0.0
2018-Jul-07 20:18N 46°31' E 030°59'0 0.1
2018-Jul-07 18:08N 46°31' E 030°59'0 0.2
2018-Jul-07 17:59N 46°32' E 030°59'0 0.1
2018-Jul-07 16:51N 46°32' E 030°59'0 0.0
2018-Jul-07 16:21N 46°32' E 030°59'0 0.0
2018-Jul-07 15:45N 46°32' E 030°59'0 0.0
2018-Jul-07 14:49N 46°32' E 030°59'0 0.0
2018-Jul-07 14:28N 46°32' E 030°59'0 0.1
2018-Jul-07 13:58N 46°32' E 030°59'0 0.1
2018-Jul-07 13:11N 46°32' E 030°59'0 0.1
2018-Jul-07 12:59N 46°32' E 030°59'0 0.0
2018-Jul-07 12:20N 46°32' E 030°59'0 0.0
2018-Jul-07 12:00N 46°32' E 030°59'0 0.0
2018-Jul-07 11:24N 46°32' E 030°59'0 0.1
2018-Jul-07 11:00N 46°32' E 030°59'0 0.0
2018-Jul-07 10:25N 46°32' E 030°59'0 0.0
2018-Jul-07 09:55N 46°32' E 030°59'0 0.0
2018-Jul-07 09:25N 46°32' E 030°59'0 0.0
2018-Jul-07 08:50N 46°32' E 030°59'0 0.1
2018-Jul-07 08:20N 46°32' E 030°59'0 0.0
2018-Jul-07 07:59N 46°32' E 030°59'0 0.0
2018-Jul-07 07:27N 46°32' E 030°59'0 0.1
2018-Jul-07 06:57N 46°32' E 030°59'0 0.0
2018-Jul-07 06:30N 46°32' E 030°59'0 0.1
2018-Jul-07 05:55N 46°32' E 030°59'0 0.1
2018-Jul-07 05:19N 46°31' E 030°59'0 0.0
2018-Jul-07 04:58N 46°31' E 030°59'0 0.0
2018-Jul-07 04:29N 46°31' E 030°59'0 0.1
2018-Jul-07 03:44N 46°32' E 030°59'0 0.0
2018-Jul-07 03:20N 46°31' E 030°59'0 0.0
2018-Jul-07 03:00N 46°31' E 030°59'0 0.0
2018-Jul-07 02:27N 46°31' E 030°59'0 0.0
2018-Jul-07 01:57N 46°31' E 030°59'0 0.1
2018-Jul-07 01:28N 46°32' E 030°59'0 0.0
2018-Jul-07 00:58N 46°32' E 030°59'0 0.0
2018-Jul-07 00:28N 46°32' E 030°59'0 0.0
2018-Jul-06 23:59N 46°32' E 030°59'0 0.0
2018-Jul-06 23:29N 46°32' E 030°59'0 0.0
2018-Jul-06 22:59N 46°32' E 030°59'0 0.0
2018-Jul-06 22:30N 46°32' E 030°59'0 0.0
2018-Jul-06 22:00N 46°32' E 030°59'0 0.1
2018-Jul-06 21:30N 46°32' E 030°59'0 0.0
2018-Jul-06 20:55N 46°32' E 030°59'0 0.0
2018-Jul-06 20:28N 46°32' E 030°59'0 0.0
2018-Jul-06 19:58N 46°32' E 030°59'0 0.0
2018-Jul-06 19:29N 46°32' E 030°59'0 0.0
2018-Jul-06 18:59N 46°32' E 030°59'0 0.0
2018-Jul-06 18:23N 46°32' E 030°59'0 0.0
2018-Jul-06 18:00N 46°32' E 030°59'0 0.0
2018-Jul-06 17:30N 46°32' E 030°59'0 0.0
2018-Jul-06 17:00N 46°32' E 030°59'0 0.0
2018-Jul-06 16:30N 46°32' E 030°59'0 0.0
2018-Jul-06 15:52N 46°32' E 030°59'0 0.0
2018-Jul-06 15:28N 46°32' E 030°59'0 0.0
2018-Jul-06 14:58N 46°32' E 030°59'0 0.0
2018-Jul-06 14:26N 46°32' E 030°59'0 0.0
2018-Jul-06 13:50N 46°32' E 030°59'0 0.0
2018-Jul-06 13:29N 46°32' E 030°59'0 0.0
2018-Jul-06 13:00N 46°32' E 030°59'0 0.0
2018-Jul-06 12:30N 46°32' E 030°59'0 0.0
2018-Jul-06 11:52N 46°32' E 030°59'0 0.0
2018-Jul-06 11:28N 46°32' E 030°59'0 0.0
2018-Jul-06 10:58N 46°32' E 030°59'0 0.0
2018-Jul-06 09:59N 46°32' E 030°59'0 0.0
2018-Jul-06 09:02N 46°32' E 030°59'0 0.0
2018-Jul-06 08:56N 46°32' E 030°59'0 0.0
2018-Jul-06 08:27N 46°32' E 030°59'0 0.0
2018-Jul-06 08:00N 46°32' E 030°59'0 0.0
2018-Jul-06 07:22N 46°32' E 030°59'0 0.0
2018-Jul-06 06:55N 46°32' E 030°59'0 0.0
2018-Jul-06 06:28N 46°32' E 030°59'0 0.1
2018-Jul-06 05:55N 46°32' E 030°59'0 0.1
2018-Jul-06 05:29N 46°32' E 030°59'  
Track history (hours):
 
Tides and Currents Weather Stations Pressure Air Temp Water Temp Dewpoint Dewpoint Depression Visibility Wind Speed Wind Dir Waves Ship Positions

Clipper Mars

Last reported at 2018-Jul-16 05:03 UTC. Time now 2018-Jul-17 05:36 UTC.
Position N 37°26' E 025°56'.

Length 205 m; draft 12.3 m.

Type: Tanker. MMSI: 258667000.

Date/timePositionNaut miles runAvg speedWind from/ knotsBaromVisibWave heightAir tempDewpointWater temp
2018-Jul-16 05:03N 37°26' E 025°56'114.1
2018-Jul-16 05:00N 37°26' E 025°55'714.0
2018-Jul-16 04:30N 37°32' E 025°49'714.3
2018-Jul-16 04:00N 37°38' E 025°45'714.2
2018-Jul-16 03:30N 37°45' E 025°42'714.6
2018-Jul-16 03:00N 37°51' E 025°38'11814.0
2018-Jul-15 18:31N 39°50' E 025°41'114.3
2018-Jul-15 18:27N 39°50' E 025°42'715.0
2018-Jul-15 18:00N 39°55' E 025°49'  
2018-Jul-12 21:21N 42°22' E 029°35'514.5
2018-Jul-12 21:00N 42°27' E 029°38'714.4
2018-Jul-12 20:30N 42°34' E 029°41'714.4
2018-Jul-12 20:00N 42°41' E 029°45'3614.5
2018-Jul-12 17:33N 43°14' E 030°03'214.6
2018-Jul-12 17:27N 43°15' E 030°04'814.7
2018-Jul-12 16:55N 43°22' E 030°08'14114.3
2018-Jul-12 07:02N 45°38' E 031°05'3613.5
2018-Jul-12 04:23N 46°13' E 030°57'512.1
2018-Jul-12 04:00N 46°17' E 030°55'714.1
2018-Jul-12 03:30N 46°24' E 030°55'713.3
2018-Jul-12 03:00N 46°31' E 030°55'3 6.8
2018-Jul-12 02:30N 46°33' E 030°59'3 6.4
2018-Jul-12 02:00N 46°36' E 031°01'1 0.0
2018-Jul-10 16:17N 46°37' E 031°01'0 1.7
2018-Jul-10 16:00N 46°37' E 031°01'5 9.3
2018-Jul-10 15:30N 46°32' E 030°59'1 1.3
2018-Jul-10 14:46N 46°32' E 030°59'0 0.0
2018-Jul-10 14:28N 46°32' E 030°59'0 0.0
2018-Jul-10 13:50N 46°32' E 030°59'0 0.0
2018-Jul-10 13:23N 46°32' E 030°59'0 0.0
2018-Jul-10 12:59N 46°32' E 030°59'0 0.1
2018-Jul-10 12:27N 46°32' E 030°59'0 0.0
2018-Jul-10 12:00N 46°32' E 030°59'0 0.1
2018-Jul-10 11:24N 46°32' E 030°59'0 0.0
2018-Jul-10 10:58N 46°32' E 030°59'0 0.0
2018-Jul-10 10:25N 46°32' E 030°59'0 0.0
2018-Jul-10 09:55N 46°32' E 030°59'0 0.0
2018-Jul-10 09:23N 46°32' E 030°59'0 0.1
2018-Jul-10 08:56N 46°32' E 030°59'0 0.1
2018-Jul-10 08:26N 46°32' E 030°59'0 0.1
2018-Jul-10 07:57N 46°32' E 030°59'0 0.0
2018-Jul-10 07:30N 46°32' E 030°59'0 0.0
2018-Jul-10 07:00N 46°32' E 030°59'0 0.1
2018-Jul-10 06:19N 46°32' E 030°59'0 0.1
2018-Jul-10 05:58N 46°32' E 030°59'0 0.0
2018-Jul-10 05:25N 46°31' E 030°59'0 0.0
2018-Jul-10 04:56N 46°31' E 030°59'0 0.1
2018-Jul-10 04:26N 46°31' E 030°59'0 0.0
2018-Jul-10 03:59N 46°31' E 030°59'0 0.0
2018-Jul-10 03:27N 46°31' E 030°59'0 0.0
2018-Jul-10 02:57N 46°31' E 030°59'0 0.0
2018-Jul-10 02:24N 46°31' E 030°59'0 0.0
2018-Jul-10 01:52N 46°31' E 030°59'0 0.0
2018-Jul-10 01:19N 46°31' E 030°59'0 0.0
2018-Jul-10 00:58N 46°31' E 030°59'0 0.1
2018-Jul-10 00:29N 46°31' E 030°59'0 0.0
2018-Jul-09 23:56N 46°31' E 030°59'0 0.0
2018-Jul-09 23:17N 46°31' E 030°59'0 0.0
2018-Jul-09 22:57N 46°31' E 030°59'0 0.0
2018-Jul-09 22:30N 46°31' E 030°59'0 0.0
2018-Jul-09 21:54N 46°31' E 030°59'0 0.1
2018-Jul-09 21:28N 46°31' E 030°59'0 0.1
2018-Jul-09 20:55N 46°31' E 030°59'0 0.1
2018-Jul-09 20:28N 46°32' E 030°59'0 0.1
2018-Jul-09 19:59N 46°32' E 030°59'0 0.1
2018-Jul-09 19:17N 46°32' E 030°59'0 0.1
2018-Jul-09 18:59N 46°32' E 030°59'0 0.1
2018-Jul-09 18:30N 46°32' E 030°59'0 0.2
2018-Jul-09 17:54N 46°31' E 030°59'0 0.1
2018-Jul-09 17:24N 46°31' E 030°59'0 0.1
2018-Jul-09 16:55N 46°31' E 030°59'0 0.3
2018-Jul-09 16:19N 46°31' E 030°59'0 0.1
2018-Jul-09 15:58N 46°32' E 030°59'0 0.1
2018-Jul-09 15:20N 46°32' E 030°59'0 0.1
2018-Jul-09 14:59N 46°32' E 030°59'0 0.0
2018-Jul-09 14:23N 46°32' E 030°59'0 0.0
2018-Jul-09 13:57N 46°32' E 030°59'0 0.0
2018-Jul-09 13:18N 46°32' E 030°59'0 0.0
2018-Jul-09 12:57N 46°32' E 030°59'0 0.1
2018-Jul-09 12:22N 46°32' E 030°59'0 0.0
2018-Jul-09 11:58N 46°32' E 030°59'0 0.1
2018-Jul-09 11:28N 46°32' E 030°59'0 0.1
2018-Jul-09 10:50N 46°32' E 030°59'0 0.1
2018-Jul-09 10:23N 46°32' E 030°59'0 0.1
2018-Jul-09 09:59N 46°32' E 030°59'0 0.0
2018-Jul-09 09:29N 46°32' E 030°59'0 0.0
2018-Jul-09 09:00N 46°32' E 030°59'0 0.1
2018-Jul-09 08:24N 46°32' E 030°59'0 0.1
2018-Jul-09 07:57N 46°31' E 030°59'0 0.0
2018-Jul-09 07:28N 46°32' E 030°59'0 0.0
2018-Jul-09 06:55N 46°32' E 030°59'0 0.0
2018-Jul-09 06:23N 46°32' E 030°59'0 0.1
2018-Jul-09 05:56N 46°31' E 030°59'0 0.0
2018-Jul-09 05:26N 46°31' E 030°59'0 0.1
2018-Jul-09 04:51N 46°31' E 030°59'0 0.1
2018-Jul-09 04:27N 46°31' E 030°59'0 0.0
2018-Jul-09 04:00N 46°31' E 030°59'0 0.0
2018-Jul-09 03:27N 46°31' E 030°59'0 0.0
2018-Jul-09 02:58N 46°31' E 030°59'0 0.0
2018-Jul-09 02:25N 46°31' E 030°59'0 0.0
2018-Jul-09 01:55N 46°31' E 030°59'0 0.0
2018-Jul-09 01:29N 46°31' E 030°59'0 0.0
2018-Jul-09 00:41N 46°31' E 030°59'0 0.1
2018-Jul-09 00:29N 46°31' E 030°59'0 0.0
2018-Jul-08 23:57N 46°31' E 030°59'0 0.0
2018-Jul-08 23:24N 46°31' E 030°59'0 0.0
2018-Jul-08 22:49N 46°31' E 030°59'0 0.0
2018-Jul-08 17:10N 46°32' E 030°59'0 0.0
2018-Jul-08 16:11N 46°32' E 030°59'0 0.0
2018-Jul-08 12:58N 46°32' E 030°59'0 0.0
2018-Jul-08 12:14N 46°32' E 030°59'0 0.1
2018-Jul-08 11:50N 46°32' E 030°59'0 0.0
2018-Jul-08 11:26N 46°32' E 030°59'0 0.0
2018-Jul-08 10:45N 46°32' E 030°59'0 0.0
2018-Jul-08 09:42N 46°32' E 030°59'0 0.1
2018-Jul-08 07:58N 46°31' E 030°59'0 0.0
2018-Jul-08 07:29N 46°31' E 030°59'0 0.0
2018-Jul-08 02:50N 46°31' E 030°59'0 0.0
2018-Jul-08 01:36N 46°31' E 030°59'0 0.0
2018-Jul-08 00:30N 46°31' E 030°59'0 0.0
2018-Jul-07 23:52N 46°31' E 030°59'0 0.1
2018-Jul-07 23:16N 46°31' E 030°59'0 0.1
2018-Jul-07 22:50N 46°31' E 030°59'0 0.0
2018-Jul-07 21:32N 46°31' E 030°59'0 0.0
2018-Jul-07 20:18N 46°31' E 030°59'0 0.1
2018-Jul-07 18:08N 46°31' E 030°59'0 0.2
2018-Jul-07 17:59N 46°32' E 030°59'0 0.1
2018-Jul-07 16:51N 46°32' E 030°59'0 0.0
2018-Jul-07 16:21N 46°32' E 030°59'0 0.0
2018-Jul-07 15:45N 46°32' E 030°59'0 0.0
2018-Jul-07 14:49N 46°32' E 030°59'0 0.0
2018-Jul-07 14:28N 46°32' E 030°59'0 0.1
2018-Jul-07 13:58N 46°32' E 030°59'0 0.1
2018-Jul-07 13:11N 46°32' E 030°59'0 0.1
2018-Jul-07 12:59N 46°32' E 030°59'0 0.0
2018-Jul-07 12:20N 46°32' E 030°59'0 0.0
2018-Jul-07 12:00N 46°32' E 030°59'0 0.0
2018-Jul-07 11:24N 46°32' E 030°59'0 0.1
2018-Jul-07 11:00N 46°32' E 030°59'0 0.0
2018-Jul-07 10:25N 46°32' E 030°59'0 0.0
2018-Jul-07 09:55N 46°32' E 030°59'0 0.0
2018-Jul-07 09:25N 46°32' E 030°59'0 0.0
2018-Jul-07 08:50N 46°32' E 030°59'0 0.1
2018-Jul-07 08:20N 46°32' E 030°59'0 0.0
2018-Jul-07 07:59N 46°32' E 030°59'0 0.0
2018-Jul-07 07:27N 46°32' E 030°59'0 0.1
2018-Jul-07 06:57N 46°32' E 030°59'0 0.0
2018-Jul-07 06:30N 46°32' E 030°59'0 0.1
2018-Jul-07 05:55N 46°32' E 030°59'0 0.1
2018-Jul-07 05:19N 46°31' E 030°59'0 0.0
2018-Jul-07 04:58N 46°31' E 030°59'0 0.0
2018-Jul-07 04:29N 46°31' E 030°59'0 0.1
2018-Jul-07 03:44N 46°32' E 030°59'0 0.0
2018-Jul-07 03:20N 46°31' E 030°59'0 0.0
2018-Jul-07 03:00N 46°31' E 030°59'0 0.0
2018-Jul-07 02:27N 46°31' E 030°59'0 0.0
2018-Jul-07 01:57N 46°31' E 030°59'0 0.1
2018-Jul-07 01:28N 46°32' E 030°59'0 0.0
2018-Jul-07 00:58N 46°32' E 030°59'0 0.0
2018-Jul-07 00:28N 46°32' E 030°59'0 0.0
2018-Jul-06 23:59N 46°32' E 030°59'0 0.0
2018-Jul-06 23:29N 46°32' E 030°59'0 0.0
2018-Jul-06 22:59N 46°32' E 030°59'0 0.0
2018-Jul-06 22:30N 46°32' E 030°59'0 0.0
2018-Jul-06 22:00N 46°32' E 030°59'0 0.1
2018-Jul-06 21:30N 46°32' E 030°59'0 0.0
2018-Jul-06 20:55N 46°32' E 030°59'0 0.0
2018-Jul-06 20:28N 46°32' E 030°59'0 0.0
2018-Jul-06 19:58N 46°32' E 030°59'0 0.0
2018-Jul-06 19:29N 46°32' E 030°59'0 0.0
2018-Jul-06 18:59N 46°32' E 030°59'0 0.0
2018-Jul-06 18:23N 46°32' E 030°59'0 0.0
2018-Jul-06 18:00N 46°32' E 030°59'0 0.0
2018-Jul-06 17:30N 46°32' E 030°59'0 0.0
2018-Jul-06 17:00N 46°32' E 030°59'0 0.0
2018-Jul-06 16:30N 46°32' E 030°59'0 0.0
2018-Jul-06 15:52N 46°32' E 030°59'0 0.0
2018-Jul-06 15:28N 46°32' E 030°59'0 0.0
2018-Jul-06 14:58N 46°32' E 030°59'0 0.0
2018-Jul-06 14:26N 46°32' E 030°59'0 0.0
2018-Jul-06 13:50N 46°32' E 030°59'0 0.0
2018-Jul-06 13:29N 46°32' E 030°59'0 0.0
2018-Jul-06 13:00N 46°32' E 030°59'0 0.0
2018-Jul-06 12:30N 46°32' E 030°59'0 0.0
2018-Jul-06 11:52N 46°32' E 030°59'0 0.0
2018-Jul-06 11:28N 46°32' E 030°59'0 0.0
2018-Jul-06 10:58N 46°32' E 030°59'0 0.0
2018-Jul-06 09:59N 46°32' E 030°59'0 0.0
2018-Jul-06 09:02N 46°32' E 030°59'0 0.0
2018-Jul-06 08:56N 46°32' E 030°59'0 0.0
2018-Jul-06 08:27N 46°32' E 030°59'0 0.0
2018-Jul-06 08:00N 46°32' E 030°59'0 0.0
2018-Jul-06 07:22N 46°32' E 030°59'0 0.0
2018-Jul-06 06:55N 46°32' E 030°59'0 0.0
2018-Jul-06 06:28N 46°32' E 030°59'0 0.1
2018-Jul-06 05:55N 46°32' E 030°59'0 0.1
2018-Jul-06 05:29N 46°32' E 030°59'  

Dump ship's entire track history